Flight Briefing for CPX437

Departure Arrival
Cincinnati/Northern Kentucky International Airport (KCVG)
Click to view FAA NOTAMS
Philadelphia International Airport (KPHL)
Click to view FAA NOTAMS
Departure Time Arrival Time
N/A N/A
Aircraft Distance
B757-200SF 462nm
Departure METAR Arrival METAR
KCVG 192252Z 08009KT 10SM SCT150 BKN180 OVC240 02/M06 A3045 RMK AO2 SLP317 T00171061 KPHL 192254Z 33007KT 10SM BKN250 02/M14 A3060 RMK AO2 SLP362 T00171144
Suggested Route
ROCKT9 AHTIY JST BOJID2


View recent IFR Routes data
Notes



Charts and Procedures

Charts for KCVG
No chart available
Charts for KPHL
No chart available

Ventusky Weather




{"cat":null,"equip":null,"transponder":null,"pbn":"PBN\/","maxpax":null,"oew":"0.0","mzfw":"0.0","mtow":"0.0","mlw":"0.0","maxfuel":"0.0"} DEVELOPMENTAL TEST USE ONLY